This is the latest recevied weather packets stored in our database for station/object CE3MXM-13. If no packets are shown the sender has not sent any weather packets the latest 10 day(s).
| Time | Temp. | Humidity | Pressure | Rain* | Wind** | Luminosity | Snow |
|---|---|---|---|---|---|---|---|
| 1777740820 | 25° C | 40% | 1011.1 hPa | - | - | - | - |
| 1777740520 | 25° C | 40% | 1011.2 hPa | - | - | - | - |
| 1777740220 | 25° C | 40% | 1011.2 hPa | - | - | - | - |
| 1777739920 | 25° C | 41% | 1011.4 hPa | - | - | - | - |
| 1777739620 | 24.44° C | 41% | 1011.4 hPa | - | - | - | - |
| 1777739319 | 24.44° C | 42% | 1011.4 hPa | - | - | - | - |
| 1777739020 | 23.89° C | 44% | 1011.4 hPa | - | - | - | - |
| 1777738719 | 23.89° C | 43% | 1011.5 hPa | - | - | - | - |
| 1777738419 | 23.33° C | 49% | 1011.5 hPa | - | - | - | - |
| 1777738119 | 23.33° C | 47% | 1011.7 hPa | - | - | - | - |
| 1777737819 | 22.78° C | 50% | 1011.6 hPa | - | - | - | - |
| 1777737519 | 22.22° C | 50% | 1011.7 hPa | - | - | - | - |
| 1777737219 | 22.22° C | 51% | 1011.8 hPa | - | - | - | - |
| 1777736920 | 22.22° C | 52% | 1011.9 hPa | - | - | - | - |
| 1777736619 | 21.11° C | 53% | 1011.9 hPa | - | - | - | - |
| 1777736319 | 21.11° C | 55% | 1012 hPa | - | - | - | - |
| 1777736019 | 21.11° C | 56% | 1012 hPa | - | - | - | - |
| 1777735719 | 21.11° C | 55% | 1011.9 hPa | - | - | - | - |
| 1777735418 | 20.56° C | 57% | 1011.9 hPa | - | - | - | - |
| 1777735118 | 20° C | 60% | 1012 hPa | - | - | - | - |
| 1777734818 | 19.44° C | 64% | 1012.1 hPa | - | - | - | - |
| 1777734518 | 17.78° C | 73% | 1012.2 hPa | - | - | - | - |
| 1777734218 | 16.11° C | 87% | 1012.1 hPa | - | - | - | - |
| 1777733918 | 15.56° C | 88% | 1012.1 hPa | - | - | - | - |
| 1777733618 | 15.56° C | 88% | 1012.2 hPa | - | - | - | - |
* Rain since midnight (hover to see other rain measurements)
** Current wind speed in m/s (hover to see current wind gust speed)